Time;durP1;ratioP1;P1;durP2;ratioP2;P2;SDS_P1;SDS_P2;PMS_P1;PMS_P2;Temp;Humidity;BMP_temperature;BMP_pressure;BME280_temperature;BME280_humidity;BME280_pressure;Samples;Min_cycle;Max_cycle;Signal;HPM_P1;HPM_P2
2022/05/26 00:02:19;;;;;;;;;0.75;0.75;;;;;16.98;62.63;101489.81;4993064;28;45683;-79
2022/05/26 00:04:45;;;;;;;;;3.00;2.00;;;;;17.01;62.65;101488.69;4992422;28;45608;-78
2022/05/26 00:07:10;;;;;;;;;2.00;1.00;;;;;17.01;62.56;101494.00;5018025;28;45640;-78
2022/05/26 00:09:36;;;;;;;;;1.25;1.00;;;;;17.02;62.54;101490.38;5054916;28;45541;-79
2022/05/26 00:12:02;;;;;;;;;0.00;0.00;;;;;16.99;62.47;101490.66;5054928;28;45798;-79
2022/05/26 00:14:27;;;;;;;;;2.00;1.00;;;;;17.02;62.64;101501.81;5054269;28;46419;-78
2022/05/26 00:16:53;;;;;;;;;1.50;1.00;;;;;16.91;62.27;101485.13;5054456;28;46770;-79
2022/05/26 00:19:19;;;;;;;;;1.00;1.00;;;;;17.01;62.72;101512.53;5054752;28;45687;-79
2022/05/26 00:21:46;;;;;;;;;0.25;0.25;;;;;16.86;62.93;101484.69;5054671;28;45642;-79
2022/05/26 00:27:34;;;;;;;;;2.00;1.00;;;;;16.91;62.84;101507.16;5054181;28;45703;-79
2022/05/26 00:29:59;;;;;;;;;1.25;1.00;;;;;16.90;63.02;101501.97;5054469;28;45577;-79
2022/05/26 00:32:24;;;;;;;;;2.00;2.00;;;;;16.85;63.08;101499.72;5036213;28;45552;-79
2022/05/26 00:34:50;;;;;;;;;1.75;1.00;;;;;16.87;62.98;101497.81;5053930;28;46904;-79
2022/05/26 00:37:15;;;;;;;;;1.00;0.25;;;;;16.82;62.97;101493.84;5053415;28;45826;-78
2022/05/26 00:39:41;;;;;;;;;1.50;1.00;;;;;16.85;63.23;101512.97;5054337;28;45646;-79
2022/05/26 00:42:07;;;;;;;;;0.25;0.00;;;;;16.85;63.25;101518.25;5054306;28;45538;-78
2022/05/26 00:44:34;;;;;;;;;0.50;0.50;;;;;16.83;63.10;101511.44;5054159;28;46540;-78
2022/05/26 00:47:09;;;;;;;;;0.50;0.25;;;;;16.78;63.14;101507.34;5054267;28;46320;-79
2022/05/26 00:50:02;;;;;;;;;1.00;1.00;;;;;16.73;63.20;101511.34;5054803;28;45689;-79
2022/05/26 00:52:36;;;;;;;;;0.00;0.00;;;;;16.77;62.99;101513.63;5059044;28;45643;-78
2022/05/26 00:55:09;;;;;;;;;2.00;1.00;;;;;16.72;63.01;101507.03;5063541;28;45679;-77
2022/05/26 00:57:39;;;;;;;;;1.00;0.00;;;;;16.68;62.87;101493.19;5043460;28;47087;-78
2022/05/26 01:04:24;;;;;;;;;0.25;0.25;;;;;16.77;62.97;101518.91;5033418;28;45562;-79
2022/05/26 01:07:08;;;;;;;;;1.50;0.75;;;;;16.79;62.66;101516.94;5054273;28;45636;-79
2022/05/26 01:17:13;;;;;;;;;2.00;1.00;;;;;16.76;62.38;101514.56;4895295;28;45696;-77
2022/05/26 01:19:57;;;;;;;;;1.00;0.00;;;;;16.76;62.56;101519.88;4839369;29;46841;-78
2022/05/26 01:30:59;;;;;;;;;1.00;0.75;;;;;16.75;62.76;101528.75;5099294;22;45744;-79
2022/05/26 01:33:47;;;;;;;;;0.25;0.00;;;;;16.75;62.65;101523.47;5024429;22;45626;-78
2022/05/26 01:36:57;;;;;;;;;1.00;1.00;;;;;16.75;62.76;101528.75;5040334;28;45662;-79
2022/05/26 01:39:30;;;;;;;;;1.00;1.00;;;;;16.70;62.55;101514.22;4983850;28;45810;-77
2022/05/26 01:42:12;;;;;;;;;0.25;0.00;;;;;16.75;62.77;101531.41;4968362;28;48911;-79
2022/05/26 01:44:52;;;;;;;;;1.25;0.75;;;;;16.75;62.67;101523.47;4987874;28;46043;-79
2022/05/26 01:47:27;;;;;;;;;1.00;0.00;;;;;16.76;62.49;101527.81;4965305;28;45880;-78
2022/05/26 01:50:01;;;;;;;;;1.00;1.00;;;;;16.76;62.45;101535.75;4956446;28;45695;-79
2022/05/26 01:52:37;;;;;;;;;2.00;1.00;;;;;16.73;63.09;101524.59;4991835;28;47726;-77
2022/05/26 01:55:13;;;;;;;;;1.00;1.00;;;;;16.71;63.15;101529.16;4973885;28;48124;-79
2022/05/26 01:58:03;;;;;;;;;0.00;0.00;;;;;16.68;63.17;101538.16;4983831;28;45682;-78
2022/05/26 02:00:30;;;;;;;;;0.00;0.00;;;;;16.65;63.11;101532.28;4966878;28;45657;-78
2022/05/26 02:03:18;;;;;;;;;1.25;1.00;;;;;16.60;63.30;101532.69;4981241;28;46801;-78
2022/05/26 02:06:02;;;;;;;;;1.00;1.00;;;;;16.52;63.61;101532.41;4966305;28;47175;-78
2022/05/26 02:08:32;;;;;;;;;2.75;0.00;;;;;16.53;63.33;101522.66;4972360;28;45839;-79
2022/05/26 02:11:12;;;;;;;;;1.00;1.00;;;;;16.46;63.63;101514.41;4985852;28;46711;-78
2022/05/26 02:14:06;;;;;;;;;2.00;0.75;;;;;16.50;63.61;101538.81;4983172;28;46810;-78
2022/05/26 02:16:36;;;;;;;;;0.25;0.25;;;;;16.47;63.58;101523.16;4970337;28;46196;-79
2022/05/26 02:19:18;;;;;;;;;1.75;1.00;;;;;16.41;63.43;101516.56;4974496;28;45958;-78
2022/05/26 02:21:59;;;;;;;;;1.00;1.00;;;;;16.42;63.74;101541.22;4971988;28;45900;-78
2022/05/26 02:24:44;;;;;;;;;0.00;0.00;;;;;16.35;63.88;101528.50;4988574;28;45794;-77
2022/05/26 02:27:10;;;;;;;;;1.25;1.00;;;;;16.39;63.57;101537.03;4978445;28;46320;-78
2022/05/26 02:32:28;;;;;;;;;1.00;1.00;;;;;16.35;63.79;101532.97;4987132;28;45805;-78
2022/05/26 02:34:57;;;;;;;;;0.00;0.00;;;;;16.32;64.09;101530.53;4986347;28;46686;-79
2022/05/26 02:37:25;;;;;;;;;2.00;1.00;;;;;16.36;63.95;101539.91;4980643;28;45870;-79
2022/05/26 02:39:51;;;;;;;;;0.50;0.50;;;;;16.33;64.04;101525.13;4991450;28;46014;-78
2022/05/26 02:42:18;;;;;;;;;1.25;1.00;;;;;16.32;64.03;101538.47;4988417;28;46069;-79
2022/05/26 02:44:44;;;;;;;;;1.00;1.00;;;;;16.22;64.28;101526.97;4971134;28;46518;-79
2022/05/26 02:47:47;;;;;;;;;1.00;0.50;;;;;16.30;64.35;101535.13;4970017;28;47987;-79
2022/05/26 02:50:18;;;;;;;;;1.00;1.00;;;;;16.27;64.32;101541.50;4987833;28;45728;-79
2022/05/26 02:53:11;;;;;;;;;1.25;1.00;;;;;16.22;64.27;101545.47;4993040;28;46125;-80
2022/05/26 02:56:07;;;;;;;;;0.00;0.00;;;;;16.24;64.45;101544.41;5051026;28;45694;-80
2022/05/26 02:58:59;;;;;;;;;2.00;1.50;;;;;16.20;64.48;101537.66;5035672;28;45951;-79
2022/05/26 03:01:34;;;;;;;;;1.00;1.00;;;;;16.18;64.63;101541.41;5032460;28;45716;-78
2022/05/26 03:04:15;;;;;;;;;1.00;0.50;;;;;16.12;64.31;101521.56;5039995;28;45761;-79
2022/05/26 03:06:50;;;;;;;;;1.00;1.00;;;;;16.15;64.54;101528.41;5051249;28;45736;-79
2022/05/26 03:09:20;;;;;;;;;2.00;1.00;;;;;16.19;64.53;101536.00;5023313;28;46420;-78
2022/05/26 03:12:04;;;;;;;;;1.00;0.00;;;;;16.11;64.63;101517.25;5045734;28;45768;-79
2022/05/26 03:14:30;;;;;;;;;2.50;1.00;;;;;16.21;64.86;101533.22;5046922;28;45838;-80
2022/05/26 03:16:56;;;;;;;;;1.00;0.00;;;;;16.10;64.82;101512.06;5044899;28;46714;-78
2022/05/26 03:19:24;;;;;;;;;2.00;1.00;;;;;16.20;64.65;101536.81;5033591;28;46026;-79
2022/05/26 03:21:52;;;;;;;;;0.50;0.50;;;;;16.16;64.46;101541.50;5045103;28;45953;-78
2022/05/26 03:24:20;;;;;;;;;0.25;0.00;;;;;16.16;64.85;101544.16;5027284;28;46028;-80
2022/05/26 03:26:54;;;;;;;;;1.00;1.00;;;;;16.15;65.02;101541.63;5033020;28;46501;-79
2022/05/26 03:29:24;;;;;;;;;0.75;0.75;;;;;16.07;64.85;101538.75;5048727;28;45892;-79
2022/05/26 03:31:50;;;;;;;;;3.50;1.00;;;;;16.09;65.03;101552.69;5052310;28;45696;-78
2022/05/26 03:42:31;;;;;;;;;0.00;0.00;;;;;15.86;65.58;101563.28;5030546;28;45838;-78
2022/05/26 03:45:10;;;;;;;;;1.25;0.00;;;;;15.79;65.59;101551.50;5036269;28;45783;-79
2022/05/26 03:47:35;;;;;;;;;0.00;0.00;;;;;15.73;65.78;101536.13;5020566;28;45724;-80
2022/05/26 03:50:01;;;;;;;;;1.00;1.00;;;;;15.80;66.12;101576.97;5052692;28;45695;-81
2022/05/26 03:52:26;;;;;;;;;0.25;0.00;;;;;15.86;67.33;101573.84;5033080;28;45722;-79
2022/05/26 03:54:52;;;;;;;;;0.00;0.00;;;;;15.76;67.36;101564.13;5044481;28;45725;-80
2022/05/26 03:57:25;;;;;;;;;1.00;0.00;;;;;15.81;67.61;101572.53;5052579;28;45755;-79
2022/05/26 03:59:50;;;;;;;;;0.50;0.00;;;;;15.75;67.58;101558.00;5038767;28;46553;-79
2022/05/26 04:02:16;;;;;;;;;1.75;0.00;;;;;15.72;67.40;101560.84;5051813;28;46055;-79
2022/05/26 04:04:44;;;;;;;;;1.00;0.00;;;;;15.73;67.37;101565.19;5052030;28;45707;-79
2022/05/26 04:07:11;;;;;;;;;0.25;0.25;;;;;15.74;67.37;101569.50;5034410;28;47601;-79
2022/05/26 04:09:45;;;;;;;;;1.00;0.00;;;;;15.66;67.15;101569.25;5038930;28;45926;-79
2022/05/26 04:12:11;;;;;;;;;1.00;1.00;;;;;15.74;66.63;101574.78;5051069;28;45639;-79
2022/05/26 04:14:51;;;;;;;;;1.00;0.25;;;;;15.75;66.77;101583.56;5051657;28;45874;-78
2022/05/26 04:17:19;;;;;;;;;0.00;0.00;;;;;15.76;66.67;101591.34;5030888;28;46440;-78
2022/05/26 04:22:43;;;;;;;;;0.00;0.00;;;;;15.70;66.34;101572.50;4989944;28;45740;-79
2022/05/26 04:25:09;;;;;;;;;1.00;0.50;;;;;15.74;66.14;101579.25;4989141;28;45762;-78
2022/05/26 04:27:35;;;;;;;;;1.00;0.00;;;;;15.77;66.00;101586.91;4989789;28;46411;-78
2022/05/26 04:30:03;;;;;;;;;0.00;0.00;;;;;15.76;66.03;101595.81;4989985;28;45801;-80
2022/05/26 04:32:29;;;;;;;;;1.00;0.00;;;;;15.77;65.91;101581.63;4989398;28;46150;-79
2022/05/26 04:34:55;;;;;;;;;0.25;0.25;;;;;15.79;66.32;101598.22;4986526;28;46138;-77
2022/05/26 04:37:26;;;;;;;;;1.00;0.00;;;;;15.79;65.90;101591.13;4958426;28;47914;-78
2022/05/26 04:39:53;;;;;;;;;1.00;0.00;;;;;15.78;65.72;101597.38;4971900;28;47908;-80
2022/05/26 04:42:19;;;;;;;;;0.00;0.00;;;;;15.83;65.79;101611.06;4987598;28;45774;-79
2022/05/26 04:44:45;;;;;;;;;0.75;0.75;;;;;15.69;65.83;101586.69;4971851;28;45883;-80
2022/05/26 04:47:12;;;;;;;;;0.00;0.00;;;;;15.84;65.66;101604.00;4988043;28;46498;-79
2022/05/26 04:49:38;;;;;;;;;0.25;0.00;;;;;15.80;65.81;101615.75;4989134;28;45814;-78
2022/05/26 04:52:06;;;;;;;;;0.75;0.25;;;;;15.71;66.09;101597.97;4976035;28;45726;-79
2022/05/26 04:54:31;;;;;;;;;0.75;0.75;;;;;15.76;66.01;101615.13;4980785;28;45797;-78
2022/05/26 04:56:58;;;;;;;;;0.00;0.00;;;;;15.77;65.93;101608.91;4973737;28;46004;-78
2022/05/26 04:59:24;;;;;;;;;0.50;0.50;;;;;15.73;65.87;101612.75;5037710;28;45688;-79
2022/05/26 05:01:50;;;;;;;;;1.00;0.00;;;;;15.79;66.06;101614.06;5029731;28;45721;-78
2022/05/26 05:04:15;;;;;;;;;1.00;0.75;;;;;15.74;65.61;101606.50;5030205;28;45656;-78
2022/05/26 05:06:41;;;;;;;;;0.00;0.00;;;;;15.78;65.74;101610.59;5034989;28;46896;-79
2022/05/26 05:09:06;;;;;;;;;3.25;0.75;;;;;15.87;65.67;101619.63;5041035;28;46145;-78
2022/05/26 05:11:32;;;;;;;;;1.00;0.75;;;;;15.91;65.43;101624.56;5031077;28;45591;-78
2022/05/26 05:14:04;;;;;;;;;0.75;0.00;;;;;15.91;65.77;101619.25;5030827;28;45928;-78
2022/05/26 05:16:34;;;;;;;;;0.50;0.50;;;;;15.84;65.58;101610.13;5012895;28;47345;-78
2022/05/26 05:18:59;;;;;;;;;1.00;1.00;;;;;15.94;65.52;101637.50;5030939;28;45680;-78
2022/05/26 05:21:50;;;;;;;;;1.00;1.00;;;;;15.98;65.51;101632.81;5031230;28;45768;-79
2022/05/26 05:28:15;;;;;;;;;1.00;0.00;;;;;16.05;65.23;101630.56;5031619;28;46267;-80
2022/05/26 05:30:50;;;;;;;;;0.75;0.00;;;;;16.00;65.14;101624.78;5041885;28;45967;-78
2022/05/26 05:33:26;;;;;;;;;0.75;0.75;;;;;16.10;65.22;101636.31;5042758;28;45712;-80
2022/05/26 05:36:05;;;;;;;;;2.50;0.00;;;;;16.04;65.03;101632.34;5022612;28;46171;-79
2022/05/26 05:38:33;;;;;;;;;1.00;1.00;;;;;15.99;65.27;101631.03;5023055;28;45741;-79
2022/05/26 05:41:01;;;;;;;;;0.00;0.00;;;;;16.02;65.14;101647.50;5028554;28;46187;-79
2022/05/26 05:43:27;;;;;;;;;0.75;0.00;;;;;15.94;65.02;101626.09;5039566;28;45732;-79
2022/05/26 05:48:55;;;;;;;;;1.00;1.00;;;;;15.91;65.02;101626.34;5034296;28;45633;-79
2022/05/26 05:51:20;;;;;;;;;0.50;0.00;;;;;16.08;64.88;101664.69;5044967;28;46229;-79
2022/05/26 05:53:45;;;;;;;;;1.00;0.75;;;;;16.09;64.80;101653.16;5035506;28;45954;-79
2022/05/26 05:56:11;;;;;;;;;1.00;0.50;;;;;16.11;64.72;101651.22;5034485;28;45792;-80
2022/05/26 05:58:39;;;;;;;;;2.00;1.00;;;;;16.05;65.03;101655.19;5034415;28;45659;-79
2022/05/26 06:04:24;;;;;;;;;1.50;1.00;;;;;16.15;64.85;101657.97;5029034;28;45729;-79
2022/05/26 06:06:50;;;;;;;;;0.00;0.00;;;;;16.15;64.92;101652.66;5035722;28;45689;-80
2022/05/26 06:13:07;;;;;;;;;0.75;0.25;;;;;16.24;64.64;101673.97;5014062;28;45836;-79
2022/05/26 06:15:33;;;;;;;;;1.50;1.00;;;;;16.09;64.76;101647.84;5040760;28;45661;-79
2022/05/26 06:17:59;;;;;;;;;0.00;0.00;;;;;16.22;64.57;101667.94;5036529;28;45675;-79
2022/05/26 06:20:24;;;;;;;;;0.00;0.00;;;;;16.19;64.07;101670.00;5043875;28;46453;-79
2022/05/26 06:22:50;;;;;;;;;0.00;0.00;;;;;16.29;63.78;101700.06;5052850;28;45864;-80
2022/05/26 06:25:17;;;;;;;;;1.00;0.00;;;;;16.22;64.03;101677.69;5043275;28;45624;-79
2022/05/26 06:30:30;;;;;;;;;0.00;0.00;;;;;16.14;63.94;101677.44;5034025;28;45706;-80
2022/05/26 06:38:33;;;;;;;;;0.00;0.00;;;;;16.24;63.95;101707.50;5046908;28;45777;-80
2022/05/26 06:44:24;;;;;;;;;0.00;0.00;;;;;16.21;64.04;101691.88;4963374;28;46109;-77
2022/05/26 06:49:57;;;;;;;;;0.00;0.00;;;;;16.17;63.71;101685.97;4932902;28;45888;-79
2022/05/26 06:52:24;;;;;;;;;0.00;0.00;;;;;16.32;63.75;101711.22;4922197;28;48244;-78
2022/05/26 06:54:50;;;;;;;;;0.00;0.00;;;;;16.38;63.61;101723.13;4941238;28;45997;-80
2022/05/26 06:57:16;;;;;;;;;0.00;0.00;;;;;16.43;63.84;101717.50;4945309;28;45777;-78
2022/05/26 06:59:42;;;;;;;;;0.00;0.00;;;;;16.47;63.92;101718.94;4920429;28;45771;-79
2022/05/26 07:02:10;;;;;;;;;0.75;0.00;;;;;16.51;63.51;101726.53;4931937;28;46278;-80
2022/05/26 07:04:38;;;;;;;;;0.00;0.00;;;;;16.52;63.26;101716.78;4931567;28;46430;-81
2022/05/26 07:07:04;;;;;;;;;0.50;0.00;;;;;16.53;63.02;101707.88;4933006;28;45704;-80
2022/05/26 07:09:30;;;;;;;;;0.00;0.00;;;;;16.54;63.15;101715.69;4938838;28;45879;-79
2022/05/26 07:11:56;;;;;;;;;0.00;0.00;;;;;16.57;63.96;101720.72;4925954;28;46982;-79
2022/05/26 07:14:22;;;;;;;;;2.50;0.00;;;;;16.57;63.82;101733.97;4925440;28;46177;-79
2022/05/26 07:16:47;;;;;;;;;0.00;0.00;;;;;16.56;63.82;101740.25;4932598;28;45799;-78
2022/05/26 07:19:14;;;;;;;;;0.25;0.00;;;;;16.54;62.99;101738.66;4931536;28;45773;-79
2022/05/26 07:21:43;;;;;;;;;0.00;0.00;;;;;16.44;62.85;101729.75;4980636;28;45604;-80
2022/05/26 07:24:09;;;;;;;;;0.25;0.00;;;;;16.49;62.90;101743.47;4989332;28;46362;-79
2022/05/26 07:26:35;;;;;;;;;0.00;0.00;;;;;16.50;62.92;101746.00;5008965;28;45649;-80
2022/05/26 07:29:00;;;;;;;;;0.00;0.00;;;;;16.47;62.91;101748.88;5032472;28;45575;-79
2022/05/26 07:31:26;;;;;;;;;0.00;0.00;;;;;16.43;62.63;101750.06;5039720;28;45648;-78
2022/05/26 07:33:52;;;;;;;;;0.00;0.00;;;;;16.46;62.67;101754.31;5050757;28;46372;-79
2022/05/26 07:41:53;;;;;;;;;0.00;0.00;;;;;16.58;62.67;101750.69;5044126;28;45833;-79
2022/05/26 07:44:19;;;;;;;;;0.00;0.00;;;;;16.57;63.62;101763.06;5046165;28;45710;-79
2022/05/26 07:46:44;;;;;;;;;0.00;0.00;;;;;16.56;64.75;101760.56;5033978;28;45764;-79
2022/05/26 07:49:12;;;;;;;;;0.00;0.00;;;;;16.59;64.87;101779.72;5045978;28;45506;-80
2022/05/26 07:51:37;;;;;;;;;0.00;0.00;;;;;16.51;64.79;101778.59;5045460;28;45705;-78
2022/05/26 07:56:46;;;;;;;;;0.00;0.00;;;;;16.43;65.12;101781.81;5222757;22;71932;-78
2022/05/26 08:02:33;;;;;;;;;0.00;0.00;;;;;16.43;64.81;101778.31;5082993;27;45650;-79
2022/05/26 08:04:59;;;;;;;;;0.00;0.00;;;;;16.43;64.57;101767.75;5092246;27;45723;-79
2022/05/26 08:07:24;;;;;;;;;0.00;0.00;;;;;16.49;64.89;101770.78;5083162;27;45788;-78
2022/05/26 08:09:50;;;;;;;;;0.00;0.00;;;;;16.50;65.37;101775.09;5075359;27;45749;-80
2022/05/26 08:12:15;;;;;;;;;0.00;0.00;;;;;16.52;65.52;101781.09;5092764;27;46450;-78
2022/05/26 08:14:43;;;;;;;;;0.25;0.00;;;;;16.54;65.88;101781.00;5085344;27;45753;-79
2022/05/26 08:17:11;;;;;;;;;0.25;0.00;;;;;16.66;65.40;101793.31;5092595;27;45714;-80
2022/05/26 08:19:37;;;;;;;;;0.00;0.00;;;;;16.62;65.63;101784.78;5079122;27;45986;-79
2022/05/26 08:22:03;;;;;;;;;0.00;0.00;;;;;16.63;65.87;101796.19;5092864;27;46556;-79
2022/05/26 08:24:29;;;;;;;;;0.00;0.00;;;;;16.66;65.85;101814.47;5077961;27;46209;-78
2022/05/26 08:26:56;;;;;;;;;0.00;0.00;;;;;16.68;65.77;101802.81;5082404;27;46016;-80
2022/05/26 08:29:22;;;;;;;;;0.00;0.00;;;;;16.61;65.49;101806.91;5086165;27;45860;-79
2022/05/26 08:31:48;;;;;;;;;2.00;0.00;;;;;16.62;64.93;101805.94;5082728;27;46359;-80
2022/05/26 08:34:14;;;;;;;;;1.00;1.00;;;;;16.57;65.39;101799.28;5058147;27;47152;-80
2022/05/26 08:36:39;;;;;;;;;3.00;2.00;;;;;16.59;65.44;101800.03;5081752;27;45984;-79
2022/05/26 08:39:05;;;;;;;;;3.00;3.00;;;;;16.62;65.43;101797.16;5079026;27;45725;-79
2022/05/26 08:41:38;;;;;;;;;2.25;1.25;;;;;16.66;65.47;101791.50;5091791;27;46553;-80
2022/05/26 08:44:10;;;;;;;;;2.00;2.00;;;;;16.82;65.25;101814.13;5087046;27;45970;-79
2022/05/26 08:47:01;;;;;;;;;3.00;2.00;;;;;16.83;65.13;101810.53;5065891;27;45626;-79
2022/05/26 08:49:48;;;;;;;;;1.00;1.00;;;;;16.90;64.63;101809.91;5080877;27;45694;-79
2022/05/26 08:52:19;;;;;;;;;1.00;1.00;;;;;16.95;64.82;101806.94;5082677;27;45669;-79
2022/05/26 08:54:53;;;;;;;;;1.25;1.00;;;;;17.01;64.19;101814.38;5074654;27;46360;-79
2022/05/26 08:57:25;;;;;;;;;0.00;0.00;;;;;17.06;63.43;101812.19;5070895;27;45758;-79
2022/05/26 08:59:51;;;;;;;;;1.00;0.75;;;;;17.01;63.54;101804.63;5085472;27;45790;-78
2022/05/26 09:02:22;;;;;;;;;0.00;0.00;;;;;17.14;62.99;101815.09;5079279;27;46609;-79
2022/05/26 09:04:48;;;;;;;;;1.75;0.00;;;;;17.09;62.38;101810.16;5078149;27;46091;-77
2022/05/26 09:12:59;;;;;;;;;1.00;1.00;;;;;17.30;61.73;101812.06;5085098;27;45599;-79
2022/05/26 09:15:27;;;;;;;;;1.00;1.00;;;;;17.37;61.83;101813.25;5082970;27;46461;-80
2022/05/26 09:17:52;;;;;;;;;2.75;2.00;;;;;17.42;61.80;101814.56;5072671;27;46177;-80
2022/05/26 09:20:41;;;;;;;;;0.00;0.00;;;;;17.54;61.10;101833.94;5080914;27;45638;-80
2022/05/26 09:23:09;;;;;;;;;2.00;1.00;;;;;17.51;60.83;101824.44;5085827;27;46618;-80
2022/05/26 09:29:08;;;;;;;;;1.00;1.00;;;;;17.57;60.34;101818.63;5028052;28;45815;-80
2022/05/26 09:31:36;;;;;;;;;2.00;1.00;;;;;17.52;59.93;101825.28;4997633;28;45785;-80
2022/05/26 09:34:03;;;;;;;;;2.00;1.00;;;;;17.65;59.41;101838.41;5008421;28;45712;-81
2022/05/26 09:39:42;;;;;;;;;1.00;0.50;;;;;17.60;59.10;101828.16;4996882;28;45816;-79
2022/05/26 09:42:16;;;;;;;;;1.75;1.00;;;;;17.76;58.79;101849.81;5017317;28;45845;-80
2022/05/26 09:45:35;;;;;;;;;0.00;0.00;;;;;17.79;58.36;101864.63;5017055;28;46117;-79
2022/05/26 09:54:53;;;;;;;;;0.00;0.00;;;;;17.77;58.27;101821.50;4892999;28;45790;-80
2022/05/26 09:57:25;;;;;;;;;0.00;0.00;;;;;18.00;57.65;101874.34;4916629;28;45895;-78
2022/05/26 09:59:51;;;;;;;;;0.00;0.00;;;;;18.05;57.48;101860.69;4949239;28;45969;-79
2022/05/26 10:02:40;;;;;;;;;0.00;0.00;;;;;18.13;57.15;101871.53;4954623;28;45751;-80
2022/05/26 10:09:09;;;;;;;;;1.00;1.00;;;;;18.21;56.20;101869.06;4966863;28;45809;-80
2022/05/26 10:12:01;;;;;;;;;0.75;0.00;;;;;18.23;57.23;101882.19;4954529;28;46007;-79
2022/05/26 10:14:36;;;;;;;;;0.00;0.00;;;;;18.12;56.94;101861.88;4951533;28;45730;-80
2022/05/26 10:17:28;;;;;;;;;1.00;1.00;;;;;18.18;56.90;101874.63;4961336;28;45809;-81
2022/05/26 10:20:26;;;;;;;;;0.00;0.00;;;;;18.19;56.54;101875.47;4953044;28;48365;-80
2022/05/26 10:23:24;;;;;;;;;1.00;0.00;;;;;18.24;56.10;101875.94;4974045;28;47257;-81
2022/05/26 10:26:05;;;;;;;;;1.00;1.00;;;;;18.28;56.84;101872.91;4980586;28;45749;-79
2022/05/26 10:28:45;;;;;;;;;1.75;1.00;;;;;18.36;56.30;101874.88;5041646;27;45879;-79
2022/05/26 10:31:25;;;;;;;;;1.00;0.75;;;;;18.40;56.15;101868.38;5087108;27;46663;-80
2022/05/26 10:34:02;;;;;;;;;3.00;2.00;;;;;18.44;56.24;101878.59;5087263;27;46486;-80
2022/05/26 10:36:56;;;;;;;;;2.25;1.25;;;;;18.49;56.29;101869.41;5082069;27;45636;-79
2022/05/26 10:39:37;;;;;;;;;1.25;1.00;;;;;18.45;56.16;101861.72;5087593;27;45826;-79
2022/05/26 10:42:14;;;;;;;;;1.00;1.00;;;;;18.51;55.75;101862.16;5073992;27;46174;-79
2022/05/26 10:44:55;;;;;;;;;0.75;0.75;;;;;18.54;56.08;101864.56;5086482;27;46004;-79
2022/05/26 10:47:29;;;;;;;;;1.00;1.00;;;;;18.58;55.88;101869.50;5086635;27;45777;-80
2022/05/26 10:50:16;;;;;;;;;1.00;1.00;;;;;18.65;56.03;101868.00;5077131;27;45674;-79
2022/05/26 10:52:49;;;;;;;;;0.25;0.00;;;;;18.71;55.59;101869.31;5073242;27;46464;-80
2022/05/26 10:55:19;;;;;;;;;0.75;0.75;;;;;18.77;55.79;101874.09;5088798;27;46439;-80
2022/05/26 10:58:08;;;;;;;;;1.00;1.00;;;;;18.85;55.33;101877.78;5083401;27;46616;-80
2022/05/26 11:00:34;;;;;;;;;2.00;0.75;;;;;18.85;54.70;101891.06;5087212;27;45976;-81
2022/05/26 11:07:09;;;;;;;;;1.00;1.00;;;;;18.90;54.83;101874.72;5074266;27;45497;-80
2022/05/26 11:13:05;;;;;;;;;0.00;0.00;;;;;18.96;54.31;101849.44;5022736;28;45571;-79
2022/05/26 11:22:48;;;;;;;;;0.50;0.00;;;;;19.22;53.55;101840.88;5029494;28;45707;-79
2022/05/26 11:25:20;;;;;;;;;0.75;0.75;;;;;19.31;53.54;101841.91;5020419;28;45718;-79
2022/05/26 11:28:10;;;;;;;;;1.00;0.00;;;;;19.43;52.65;101847.97;5024332;28;45827;-80
2022/05/26 11:36:32;;;;;;;;;0.00;0.00;;;;;19.54;52.23;101853.19;5024726;28;45701;-79
2022/05/26 11:39:01;;;;;;;;;0.00;0.00;;;;;19.55;52.24;101837.09;5026673;28;45790;-80
2022/05/26 11:41:34;;;;;;;;;0.00;0.00;;;;;19.63;52.16;101850.56;5029979;28;45872;-79
2022/05/26 11:44:10;;;;;;;;;1.00;1.00;;;;;19.69;52.28;101858.00;5025896;28;45889;-80
2022/05/26 11:46:41;;;;;;;;;0.75;0.75;;;;;19.74;52.51;101849.59;5040286;28;45798;-80
2022/05/26 11:49:07;;;;;;;;;1.00;1.00;;;;;19.76;52.13;101850.28;5076793;27;45712;-80
2022/05/26 11:51:42;;;;;;;;;1.00;0.00;;;;;19.77;51.92;101848.47;5093980;27;46459;-80
2022/05/26 11:54:30;;;;;;;;;1.00;1.00;;;;;19.74;52.39;101854.06;5091748;27;45683;-80
2022/05/26 12:00:55;;;;;;;;;0.00;0.00;;;;;19.75;52.06;101845.97;5079361;27;45746;-78
2022/05/26 12:03:24;;;;;;;;;1.00;1.00;;;;;19.78;51.76;101856.31;5073366;27;47314;-79
2022/05/26 12:09:31;;;;;;;;;1.00;0.50;;;;;19.83;52.43;101838.13;5065298;27;45849;-80
2022/05/26 12:16:17;;;;;;;;;1.00;1.00;;;;;20.05;51.38;101835.19;4893911;28;46745;-79
2022/05/26 12:25:35;;;;;;;;;0.00;0.00;;;;;20.18;51.03;101829.59;4862041;28;46752;-80
2022/05/26 12:31:05;;;;;;;;;0.00;0.00;;;;;20.28;51.82;101840.22;5392200;22;45950;-80
2022/05/26 12:33:57;;;;;;;;;0.00;0.00;;;;;20.37;51.90;101845.56;5051357;28;45762;-80
2022/05/26 12:39:50;;;;;;;;;1.00;1.00;;;;;20.37;51.57;101834.91;5039964;28;45940;-80
2022/05/26 12:42:29;;;;;;;;;1.00;0.00;;;;;20.44;52.04;101845.84;5051934;28;46180;-80
2022/05/26 12:45:01;;;;;;;;;0.25;0.00;;;;;20.46;51.94;101835.88;5063516;28;45466;-79
2022/05/26 12:47:41;;;;;;;;;0.25;0.25;;;;;20.44;52.03;101836.03;5070026;28;45809;-81
2022/05/26 12:50:15;;;;;;;;;1.00;1.00;;;;;20.38;51.63;101811.78;5046300;28;45945;-80
2022/05/26 12:52:49;;;;;;;;;0.00;0.00;;;;;20.53;51.66;101832.50;5050975;28;45699;-81
2022/05/26 12:58:46;;;;;;;;;0.75;0.25;;;;;20.67;51.49;101815.25;5036082;28;45867;-78
2022/05/26 13:01:13;;;;;;;;;0.00;0.00;;;;;20.71;51.21;101805.13;5051522;28;45659;-80
2022/05/26 13:03:43;;;;;;;;;0.00;0.00;;;;;20.79;50.77;101808.72;5050563;28;45692;-80
2022/05/26 13:06:21;;;;;;;;;0.50;0.50;;;;;20.87;51.09;101806.19;5047019;28;46017;-80
2022/05/26 13:08:55;;;;;;;;;0.00;0.00;;;;;20.95;50.54;101808.94;5039276;28;46897;-78
2022/05/26 13:11:27;;;;;;;;;0.00;0.00;;;;;21.01;50.50;101809.34;5051291;28;46306;-79
2022/05/26 13:13:58;;;;;;;;;0.75;0.75;;;;;21.07;50.00;101800.75;5033346;28;46005;-79
2022/05/26 13:16:29;;;;;;;;;0.00;0.00;;;;;21.06;49.62;101797.25;5051904;28;45811;-79
2022/05/26 13:19:04;;;;;;;;;2.00;1.00;;;;;21.02;49.47;101801.19;5051107;28;45757;-78
2022/05/26 13:21:30;;;;;;;;;0.00;0.00;;;;;21.10;49.49;101797.81;5050857;28;45979;-80
2022/05/26 13:23:56;;;;;;;;;0.00;0.00;;;;;21.10;49.63;101787.16;5045996;28;45855;-80
2022/05/26 13:26:23;;;;;;;;;0.00;0.00;;;;;21.10;49.00;101779.16;5051383;28;45635;-79
2022/05/26 13:28:54;;;;;;;;;0.75;0.75;;;;;21.15;48.98;101796.41;5050753;28;46699;-79
2022/05/26 13:34:08;;;;;;;;;0.75;0.75;;;;;21.23;48.64;101795.66;5049749;28;45709;-80
2022/05/26 13:36:41;;;;;;;;;0.00;0.00;;;;;21.27;48.60;101773.03;5051113;28;45698;-80
2022/05/26 13:39:13;;;;;;;;;0.50;0.50;;;;;21.37;48.45;101779.16;5033010;28;48605;-78
2022/05/26 13:41:42;;;;;;;;;0.75;0.75;;;;;21.40;48.69;101780.69;5050014;28;46588;-79
2022/05/26 13:44:13;;;;;;;;;0.75;0.75;;;;;21.39;48.66;101774.50;5051518;28;45729;-80
2022/05/26 13:46:43;;;;;;;;;1.00;1.00;;;;;21.51;48.49;101793.78;5060157;28;45617;-80
2022/05/26 13:49:29;;;;;;;;;0.00;0.00;;;;;21.55;48.18;101782.66;5065107;28;46752;-78
2022/05/26 13:51:55;;;;;;;;;0.25;0.25;;;;;21.56;48.57;101784.34;5060586;28;45947;-79
2022/05/26 13:54:29;;;;;;;;;0.00;0.00;;;;;21.59;48.08;101789.38;5065306;28;45656;-79
2022/05/26 13:56:59;;;;;;;;;0.25;0.25;;;;;21.64;48.39;101773.78;5042499;28;45503;-79
2022/05/26 13:59:24;;;;;;;;;1.00;0.00;;;;;21.65;47.58;101775.44;5055719;28;46508;-79
2022/05/26 14:01:56;;;;;;;;;1.00;0.00;;;;;21.70;47.91;101777.66;5054195;28;45756;-79
2022/05/26 14:04:39;;;;;;;;;1.00;0.50;;;;;21.74;47.10;101771.03;5057883;28;45729;-79
2022/05/26 14:07:29;;;;;;;;;0.00;0.00;;;;;21.76;47.28;101774.38;5056808;28;45607;-80
2022/05/26 14:10:15;;;;;;;;;0.75;0.75;;;;;21.76;47.78;101759.19;5057926;28;45795;-80
2022/05/26 14:12:41;;;;;;;;;0.75;0.75;;;;;21.79;47.28;101760.72;5060554;28;45946;-80
2022/05/26 14:15:07;;;;;;;;;0.00;0.00;;;;;21.82;47.72;101762.25;5053854;28;45773;-80
2022/05/26 14:17:36;;;;;;;;;1.50;0.75;;;;;21.72;46.95;101744.50;5053937;28;45926;-80
2022/05/26 14:20:23;;;;;;;;;0.75;0.75;;;;;21.88;47.20;101758.97;5053371;28;45756;-79